createdAt,value
2022-12-24T00:01:49.461Z,4.42
2022-12-24T00:04:19.443Z,4.48
2022-12-24T00:06:48.123Z,4.48
2022-12-24T00:09:17.106Z,4.46
2022-12-24T00:11:45.759Z,4.50
2022-12-24T00:14:15.134Z,4.51
2022-12-24T00:16:43.823Z,4.55
2022-12-24T00:19:13.046Z,4.52
2022-12-24T00:21:42.996Z,4.48
2022-12-24T00:24:12.756Z,4.48
2022-12-24T00:26:41.347Z,4.41
2022-12-24T00:29:10.472Z,4.45
2022-12-24T00:31:39.008Z,4.48
2022-12-24T00:34:08.778Z,4.52
2022-12-24T00:36:37.575Z,4.47
2022-12-24T00:39:07.716Z,4.49
2022-12-24T00:41:36.232Z,4.46
2022-12-24T00:44:06.932Z,4.49
2022-12-24T00:46:36.294Z,4.43
2022-12-24T00:49:06.068Z,4.52
2022-12-24T00:51:37.413Z,4.50
2022-12-24T00:54:09.779Z,4.41
2022-12-24T00:56:38.373Z,4.46
2022-12-24T00:59:06.878Z,4.46
2022-12-24T01:01:36.901Z,4.44
2022-12-24T01:04:21.422Z,4.53
2022-12-24T01:06:50.100Z,4.44
2022-12-24T01:09:20.221Z,4.48
2022-12-24T01:11:48.727Z,4.46
2022-12-24T01:14:17.348Z,4.46
2022-12-24T01:16:45.922Z,4.50
2022-12-24T01:19:14.551Z,4.52
2022-12-24T01:21:43.342Z,4.50
2022-12-24T01:24:16.018Z,4.50
2022-12-24T01:26:50.101Z,4.47
2022-12-24T01:29:20.332Z,4.54
2022-12-24T01:31:48.684Z,4.40
2022-12-24T01:34:17.470Z,4.45
2022-12-24T01:36:45.929Z,4.48
2022-12-24T01:39:14.409Z,4.50
2022-12-24T01:42:00.385Z,4.41
2022-12-24T01:44:36.736Z,4.46
2022-12-24T01:47:11.856Z,4.47
2022-12-24T01:49:43.849Z,4.51
2022-12-24T01:52:17.433Z,4.43
2022-12-24T01:54:50.713Z,4.42
2022-12-24T01:57:23.236Z,4.42
2022-12-24T01:59:59.772Z,4.47
2022-12-24T02:02:31.023Z,4.48
2022-12-24T02:05:04.586Z,4.51
2022-12-24T02:07:33.521Z,4.38
2022-12-24T02:10:03.368Z,4.54
2022-12-24T02:12:36.393Z,4.52
2022-12-24T02:15:08.184Z,4.58
2022-12-24T02:17:43.508Z,4.45
2022-12-24T02:20:37.882Z,4.48
2022-12-24T02:23:40.018Z,4.48
2022-12-24T02:26:25.703Z,4.49
2022-12-24T02:29:19.999Z,4.54
2022-12-24T02:31:55.076Z,4.43
2022-12-24T02:34:31.558Z,4.55
2022-12-24T02:37:06.361Z,4.53
2022-12-24T02:39:42.345Z,4.44
2022-12-24T02:42:16.633Z,4.50
2022-12-24T02:44:49.827Z,4.44
2022-12-24T02:47:23.135Z,4.45
2022-12-24T02:49:51.724Z,4.47
2022-12-24T02:52:31.315Z,4.53
2022-12-24T02:55:03.549Z,4.55
2022-12-24T02:57:45.615Z,4.51
2022-12-24T03:00:17.014Z,4.49
2022-12-24T03:03:07.903Z,4.51
2022-12-24T03:05:42.875Z,4.55
2022-12-24T03:08:17.276Z,4.42
2022-12-24T03:10:53.469Z,4.53
2022-12-24T03:13:24.948Z,4.40
2022-12-24T03:15:53.927Z,4.49
2022-12-24T03:18:25.918Z,4.44
2022-12-24T03:20:59.408Z,4.41
2022-12-24T03:23:28.087Z,4.23
2022-12-24T03:25:56.754Z,4.33
2022-12-24T03:28:29.050Z,4.33
2022-12-24T03:31:02.096Z,4.43
2022-12-24T03:33:33.072Z,4.49
2022-12-24T03:36:02.123Z,4.21
2022-12-24T03:38:31.198Z,4.33
2022-12-24T03:40:59.964Z,4.29
2022-12-24T03:43:28.437Z,4.33
2022-12-24T03:45:57.892Z,4.40
2022-12-24T03:48:32.570Z,4.29
2022-12-24T03:51:05.862Z,4.31
2022-12-24T03:53:34.617Z,4.34
2022-12-24T03:56:04.220Z,4.24
2022-12-24T03:58:32.743Z,4.28
2022-12-24T04:01:01.404Z,4.36
2022-12-24T04:03:30.106Z,4.36
2022-12-24T04:06:09.174Z,4.30
2022-12-24T04:08:39.187Z,4.27
2022-12-24T04:11:10.220Z,4.30
2022-12-24T04:13:39.677Z,4.25
2022-12-24T04:16:12.045Z,4.22
2022-12-24T04:18:42.029Z,4.13
2022-12-24T04:21:13.588Z,4.22
2022-12-24T04:23:43.667Z,4.28
2022-12-24T04:26:14.220Z,4.28
2022-12-24T04:28:44.964Z,4.25
2022-12-24T04:31:17.064Z,4.19
2022-12-24T04:33:47.747Z,4.31
2022-12-24T04:36:19.822Z,4.15
2022-12-24T04:38:49.754Z,4.14
2022-12-24T04:41:23.820Z,4.25
2022-12-24T04:43:54.444Z,4.07
2022-12-24T04:46:30.716Z,4.05
2022-12-24T04:49:00.532Z,4.19
2022-12-24T04:51:30.603Z,4.21
2022-12-24T04:53:59.252Z,4.12
2022-12-24T04:56:30.322Z,4.16
2022-12-24T04:59:00.882Z,4.19
2022-12-24T05:01:32.354Z,4.14
2022-12-24T05:04:01.244Z,4.31
2022-12-24T05:06:34.219Z,4.23
2022-12-24T05:09:02.810Z,4.35
2022-12-24T05:11:31.868Z,4.26
2022-12-24T05:14:01.423Z,4.20
2022-12-24T05:16:30.348Z,4.17
2022-12-24T05:18:59.270Z,4.29
2022-12-24T05:21:27.946Z,4.22
2022-12-24T05:24:15.594Z,4.13
2022-12-24T05:26:46.293Z,4.09
2022-12-24T05:29:14.782Z,4.24
2022-12-24T05:31:45.226Z,4.24
2022-12-24T05:34:15.255Z,4.23
2022-12-24T05:36:44.259Z,4.18
2022-12-24T05:39:17.146Z,4.15
2022-12-24T05:41:49.504Z,4.06
2022-12-24T05:44:18.331Z,4.10
2022-12-24T05:46:47.238Z,4.09
2022-12-24T05:49:15.981Z,4.04
2022-12-24T05:51:44.615Z,4.17
2022-12-24T05:54:13.378Z,4.02
2022-12-24T05:56:47.272Z,4.14
2022-12-24T05:59:16.943Z,4.16
2022-12-24T06:01:48.244Z,4.11
2022-12-24T06:04:19.399Z,4.16
2022-12-24T06:06:52.417Z,4.17
2022-12-24T06:09:21.057Z,4.03
2022-12-24T06:11:51.180Z,4.24
2022-12-24T06:14:19.622Z,4.04
2022-12-24T06:16:48.655Z,4.11
2022-12-24T06:19:17.224Z,4.04
2022-12-24T06:21:46.121Z,4.19
2022-12-24T06:24:14.650Z,4.03
2022-12-24T06:26:43.169Z,4.14
2022-12-24T06:29:13.252Z,4.14
2022-12-24T06:31:41.856Z,4.15
2022-12-24T06:34:11.318Z,4.12
2022-12-24T06:36:39.962Z,4.11
2022-12-24T06:39:08.440Z,4.00
2022-12-24T06:41:36.860Z,4.05
2022-12-24T06:44:05.819Z,4.20
2022-12-24T06:46:36.049Z,4.15
2022-12-24T06:49:04.911Z,4.08
2022-12-24T06:51:33.258Z,4.15
2022-12-24T06:54:01.799Z,4.10
2022-12-24T06:56:30.565Z,4.26
2022-12-24T06:59:05.043Z,4.36
2022-12-24T07:01:35.823Z,4.33
2022-12-24T07:04:04.460Z,4.28
2022-12-24T07:06:35.170Z,4.34
2022-12-24T07:09:03.728Z,4.26
2022-12-24T07:11:32.260Z,4.17
2022-12-24T07:14:00.740Z,4.17
2022-12-24T07:16:29.572Z,4.26
2022-12-24T07:19:00.109Z,4.22
2022-12-24T07:21:28.682Z,4.21
2022-12-24T07:23:57.209Z,4.24
2022-12-24T07:26:25.822Z,4.13
2022-12-24T07:28:54.424Z,4.11
2022-12-24T07:31:23.239Z,4.10
2022-12-24T07:33:52.076Z,4.12
2022-12-24T07:36:23.334Z,4.04
2022-12-24T07:38:52.845Z,4.16
2022-12-24T07:41:21.192Z,4.23
2022-12-24T07:43:50.129Z,4.20
2022-12-24T07:46:18.565Z,4.32
2022-12-24T07:48:47.200Z,4.48
2022-12-24T07:51:15.600Z,4.62
2022-12-24T07:53:48.053Z,4.57
2022-12-24T07:56:18.185Z,4.72
2022-12-24T07:58:47.134Z,4.70
2022-12-24T08:01:15.687Z,4.81
2022-12-24T08:03:45.150Z,4.73
2022-12-24T08:06:15.017Z,4.66
2022-12-24T08:08:43.577Z,4.40
2022-12-24T08:11:14.195Z,4.51
2022-12-24T08:13:43.055Z,4.46
2022-12-24T08:16:11.622Z,4.63
2022-12-24T08:18:40.292Z,4.71
2022-12-24T08:21:10.734Z,4.40
2022-12-24T08:23:39.850Z,4.37
2022-12-24T08:26:09.132Z,4.31
2022-12-24T08:28:39.545Z,4.48
2022-12-24T08:31:09.439Z,4.44
2022-12-24T08:33:38.127Z,4.48
2022-12-24T08:36:07.123Z,4.30
2022-12-24T08:38:35.579Z,4.40
2022-12-24T08:41:04.319Z,4.36
2022-12-24T08:43:32.814Z,4.47
2022-12-24T08:46:05.961Z,4.51
2022-12-24T08:48:35.309Z,4.50
2022-12-24T08:51:08.457Z,4.44
2022-12-24T08:53:38.795Z,4.29
2022-12-24T08:56:10.110Z,4.28
2022-12-24T08:58:39.575Z,4.17
2022-12-24T09:01:16.937Z,4.19
2022-12-24T09:03:46.015Z,4.13
2022-12-24T09:06:15.975Z,4.13
2022-12-24T09:08:44.787Z,4.28
2022-12-24T09:11:17.028Z,4.42
2022-12-24T09:13:45.941Z,4.44
2022-12-24T09:16:19.976Z,4.17
2022-12-24T09:18:48.358Z,4.19
2022-12-24T09:21:19.233Z,4.14
2022-12-24T09:23:49.452Z,4.16
2022-12-24T09:26:21.220Z,4.20
2022-12-24T09:28:50.826Z,4.23
2022-12-24T09:31:21.717Z,4.13
2022-12-24T09:33:52.532Z,4.31
2022-12-24T09:36:22.429Z,4.46
2022-12-24T09:38:51.053Z,4.44
2022-12-24T09:41:33.535Z,4.45
2022-12-24T09:44:09.439Z,4.43
2022-12-24T09:46:44.883Z,4.31
2022-12-24T09:49:18.570Z,4.26
2022-12-24T09:51:52.472Z,4.33
2022-12-24T09:54:26.737Z,4.27
2022-12-24T09:56:56.259Z,4.34
2022-12-24T09:59:28.084Z,4.47
2022-12-24T10:01:59.203Z,4.44
2022-12-24T10:04:33.815Z,4.62
2022-12-24T10:07:09.747Z,4.54
2022-12-24T10:09:45.632Z,4.57
2022-12-24T10:12:20.827Z,4.27
2022-12-24T10:14:59.715Z,4.57
2022-12-24T10:17:40.674Z,4.51
2022-12-24T10:20:26.889Z,4.54
2022-12-24T10:23:03.542Z,4.66
2022-12-24T10:25:39.413Z,4.50
2022-12-24T10:28:18.925Z,4.76
2022-12-24T10:30:50.754Z,4.73
2022-12-24T10:33:30.333Z,4.77
2022-12-24T10:36:00.114Z,4.92
2022-12-24T10:38:28.840Z,4.85
2022-12-24T10:41:01.831Z,4.71
2022-12-24T10:43:31.341Z,4.89
2022-12-24T10:46:04.294Z,4.45
2022-12-24T10:55:12.489Z,4.71
2022-12-24T10:57:42.242Z,4.73
2022-12-24T11:00:21.438Z,4.58
2022-12-24T11:03:08.907Z,4.62
2022-12-24T11:08:55.816Z,4.94
2022-12-24T11:11:26.407Z,4.91
2022-12-24T11:13:57.713Z,5.13
2022-12-24T11:16:31.276Z,4.55
2022-12-24T11:19:02.890Z,4.65
2022-12-24T11:21:35.587Z,4.75
2022-12-24T11:24:09.640Z,4.77
2022-12-24T11:26:38.841Z,4.85
2022-12-24T11:29:22.806Z,4.87
2022-12-24T11:31:53.699Z,5.00
2022-12-24T11:34:28.249Z,5.16
2022-12-24T11:37:16.248Z,5.10
2022-12-24T11:39:50.538Z,5.08
2022-12-24T11:42:30.058Z,4.71
2022-12-24T11:45:01.276Z,5.07
2022-12-24T11:47:38.403Z,5.07
2022-12-24T11:50:28.096Z,5.14
2022-12-24T11:53:22.301Z,5.00
2022-12-24T11:55:53.900Z,5.01
2022-12-24T11:58:31.781Z,5.06
2022-12-24T12:01:11.854Z,4.93
2022-12-24T12:03:47.771Z,4.88
2022-12-24T12:06:29.960Z,4.98
2022-12-24T12:09:11.208Z,5.32
2022-12-24T12:11:43.511Z,5.17
2022-12-24T12:14:21.737Z,5.23
2022-12-24T12:17:04.086Z,4.98
2022-12-24T12:19:41.269Z,5.13
2022-12-24T12:22:20.159Z,5.06
2022-12-24T12:24:54.943Z,5.04
2022-12-24T12:27:32.109Z,4.94
2022-12-24T12:30:03.932Z,4.99
2022-12-24T12:32:40.847Z,5.10
2022-12-24T12:35:20.821Z,5.12
2022-12-24T12:37:58.335Z,5.45
2022-12-24T12:40:41.713Z,5.50
2022-12-24T12:43:22.984Z,5.43
2022-12-24T12:45:57.774Z,5.47
2022-12-24T12:49:00.313Z,5.40
2022-12-24T12:51:37.785Z,5.29
2022-12-24T12:54:21.465Z,5.37
2022-12-24T12:56:56.332Z,5.69
2022-12-24T12:59:32.503Z,5.56
2022-12-24T13:02:15.503Z,5.83
2022-12-24T13:05:17.723Z,5.63
2022-12-24T13:08:13.988Z,5.77
2022-12-24T13:10:55.232Z,5.85
2022-12-24T13:13:49.386Z,5.87
2022-12-24T13:16:53.459Z,5.84
2022-12-24T13:19:40.080Z,5.76
2022-12-24T13:22:17.176Z,5.89
2022-12-24T13:24:53.675Z,5.98
2022-12-24T13:27:26.210Z,5.97
2022-12-24T13:30:04.971Z,5.89
2022-12-24T13:32:53.887Z,5.78
2022-12-24T13:36:00.201Z,5.98
2022-12-24T13:38:44.293Z,5.96
2022-12-24T13:41:41.841Z,5.99
2022-12-24T13:44:19.471Z,5.87
2022-12-24T13:46:53.489Z,5.87
2022-12-24T13:49:27.475Z,5.75
2022-12-24T13:52:15.665Z,5.79
2022-12-24T13:54:49.209Z,5.78
2022-12-24T13:57:34.134Z,5.91
2022-12-24T14:00:06.434Z,5.81
2022-12-24T14:02:50.686Z,5.80
2022-12-24T14:05:27.647Z,5.90
2022-12-24T14:07:58.069Z,5.90
2022-12-24T14:10:30.468Z,5.99
2022-12-24T14:12:59.451Z,5.88
2022-12-24T14:16:03.114Z,5.84
2022-12-24T14:18:36.801Z,6.03
2022-12-24T14:21:07.572Z,5.95
2022-12-24T14:23:48.556Z,5.93
2022-12-24T14:26:19.883Z,6.02
2022-12-24T14:28:54.579Z,6.07
2022-12-24T14:31:23.819Z,5.98
2022-12-24T14:33:54.282Z,6.00
2022-12-24T14:36:26.592Z,6.12
2022-12-24T14:38:55.083Z,6.02
2022-12-24T14:41:44.065Z,6.23
2022-12-24T14:44:29.613Z,6.25
2022-12-24T14:47:15.906Z,6.17
2022-12-24T14:50:02.496Z,6.14
2022-12-24T14:53:04.060Z,5.99
2022-12-24T14:55:32.539Z,5.92
2022-12-24T14:58:23.013Z,6.00
2022-12-24T15:00:52.815Z,6.02
2022-12-24T15:03:23.852Z,6.02
2022-12-24T15:05:56.893Z,5.99
2022-12-24T15:08:31.803Z,6.00
2022-12-24T15:11:05.713Z,5.98
2022-12-24T15:13:38.731Z,6.01
2022-12-24T15:16:10.154Z,6.05
2022-12-24T15:18:43.888Z,5.87
2022-12-24T15:21:27.189Z,5.83
2022-12-24T15:23:55.824Z,5.80
2022-12-24T15:26:27.804Z,5.87
2022-12-24T15:29:03.172Z,5.92
2022-12-24T15:31:33.166Z,5.75
2022-12-24T15:34:01.810Z,5.73
2022-12-24T15:36:34.871Z,5.67
2022-12-24T15:39:05.901Z,5.86
2022-12-24T15:42:00.537Z,5.70
2022-12-24T15:44:34.249Z,5.72
2022-12-24T15:47:04.250Z,5.73
2022-12-24T15:49:34.982Z,5.71
2022-12-24T15:52:07.571Z,5.71
2022-12-24T15:54:36.364Z,5.71
2022-12-24T15:57:16.470Z,5.61
2022-12-24T15:59:45.050Z,5.71
2022-12-24T16:02:39.578Z,5.79
2022-12-24T16:05:29.819Z,5.87
2022-12-24T16:08:11.145Z,5.91
2022-12-24T16:10:42.666Z,5.88
2022-12-24T16:13:20.622Z,5.87
2022-12-24T16:15:54.969Z,5.93
2022-12-24T16:18:26.587Z,5.80
2022-12-24T16:20:57.062Z,5.72
2022-12-24T16:23:36.175Z,5.70
2022-12-24T16:26:05.598Z,5.91
2022-12-24T16:28:35.398Z,5.86
2022-12-24T16:31:05.648Z,5.72
2022-12-24T16:33:34.323Z,5.70
2022-12-24T16:36:02.981Z,5.66
2022-12-24T16:38:53.540Z,5.59
2022-12-24T16:41:21.890Z,5.55
2022-12-24T16:43:51.018Z,5.56
2022-12-24T16:46:20.760Z,5.54
2022-12-24T16:48:51.526Z,5.56
2022-12-24T16:51:19.986Z,5.62
2022-12-24T16:53:50.160Z,5.64
2022-12-24T16:56:18.907Z,5.60
2022-12-24T16:58:47.377Z,5.62
2022-12-24T17:01:16.289Z,5.68
2022-12-24T17:03:45.559Z,5.77
2022-12-24T17:06:14.112Z,5.86
2022-12-24T17:08:42.571Z,5.88
2022-12-24T17:11:15.181Z,5.79
2022-12-24T17:13:43.696Z,5.75
2022-12-24T17:16:12.575Z,5.63
2022-12-24T17:18:41.428Z,5.52
2022-12-24T17:21:14.881Z,5.41
2022-12-24T17:23:43.903Z,5.35
2022-12-24T17:26:15.906Z,5.46
2022-12-24T17:28:44.742Z,5.42
2022-12-24T17:31:16.865Z,5.39
2022-12-24T17:33:45.654Z,5.33
2022-12-24T17:36:14.533Z,5.29
2022-12-24T17:38:43.279Z,5.31
2022-12-24T17:41:15.155Z,5.27
2022-12-24T17:43:46.483Z,5.24
2022-12-24T17:46:18.782Z,5.24
2022-12-24T17:48:47.350Z,5.27
2022-12-24T17:51:20.621Z,5.17
2022-12-24T17:53:49.711Z,5.22
2022-12-24T17:56:20.953Z,5.18
2022-12-24T17:58:49.476Z,5.12
2022-12-24T18:01:21.310Z,5.20
2022-12-24T18:03:52.052Z,5.16
2022-12-24T18:06:21.705Z,5.15
2022-12-24T18:08:50.320Z,5.14
2022-12-24T18:11:24.234Z,5.20
2022-12-24T18:13:52.874Z,5.06
2022-12-24T18:16:24.010Z,4.94
2022-12-24T18:18:53.417Z,4.71
2022-12-24T18:21:24.027Z,4.72
2022-12-24T18:23:55.220Z,4.67
2022-12-24T18:26:26.974Z,4.59
2022-12-24T18:28:56.662Z,4.56
2022-12-24T18:31:27.123Z,4.56
2022-12-24T18:33:56.845Z,4.55
2022-12-24T18:36:25.751Z,4.56
2022-12-24T18:38:54.291Z,4.51
2022-12-24T18:41:26.297Z,4.48
2022-12-24T18:43:55.727Z,4.60
2022-12-24T18:46:26.908Z,4.61
2022-12-24T18:48:57.397Z,4.47
2022-12-24T18:51:29.828Z,4.51
2022-12-24T18:53:58.842Z,4.36
2022-12-24T18:56:29.922Z,4.20
2022-12-24T18:59:00.177Z,4.32
2022-12-24T19:01:30.764Z,4.23
2022-12-24T19:04:00.776Z,4.17
2022-12-24T19:06:31.555Z,4.26
2022-12-24T19:09:01.519Z,4.24
2022-12-24T19:11:34.503Z,4.33
2022-12-24T19:14:04.538Z,4.44
2022-12-24T19:16:35.755Z,4.46
2022-12-24T19:19:05.914Z,4.29
2022-12-24T19:21:35.848Z,4.37
2022-12-24T19:24:04.584Z,4.50
2022-12-24T19:26:34.634Z,4.65
2022-12-24T19:29:04.668Z,4.66
2022-12-24T19:31:34.016Z,4.75
2022-12-24T19:34:03.093Z,4.87
2022-12-24T19:36:31.966Z,4.82
2022-12-24T19:39:00.786Z,4.93
2022-12-24T19:41:32.291Z,4.83
2022-12-24T19:44:03.403Z,4.88
2022-12-24T19:46:34.749Z,4.82
2022-12-24T19:49:07.010Z,4.79
2022-12-24T19:51:36.316Z,4.76
2022-12-24T19:54:06.403Z,4.57
2022-12-24T19:56:34.889Z,4.69
2022-12-24T19:59:05.126Z,4.70
2022-12-24T20:01:35.805Z,4.60
2022-12-24T20:04:04.718Z,4.51
2022-12-24T20:06:35.952Z,4.38
2022-12-24T20:09:07.329Z,4.45
2022-12-24T20:11:36.480Z,4.62
2022-12-24T20:14:07.947Z,4.63
2022-12-24T20:16:36.886Z,4.71
2022-12-24T20:19:07.864Z,4.80
2022-12-24T20:21:38.175Z,4.70
2022-12-24T20:24:08.494Z,4.93
2022-12-24T20:26:37.664Z,4.97
2022-12-24T20:29:13.884Z,4.93
2022-12-24T20:31:44.238Z,4.96
2022-12-24T20:34:14.190Z,4.98
2022-12-24T20:36:43.843Z,5.05
2022-12-24T20:39:13.363Z,5.14
2022-12-24T20:41:44.650Z,5.16
2022-12-24T20:44:14.606Z,5.26
2022-12-24T20:46:43.190Z,5.30
2022-12-24T20:49:15.645Z,5.41
2022-12-24T20:51:45.997Z,5.24
2022-12-24T20:54:15.428Z,5.34
2022-12-24T20:56:47.419Z,5.37
2022-12-24T20:59:28.240Z,5.41
2022-12-24T21:01:57.783Z,5.49
2022-12-24T21:04:27.479Z,5.59
2022-12-24T21:06:56.084Z,5.55
2022-12-24T21:09:25.518Z,5.57
2022-12-24T21:12:11.472Z,5.52
2022-12-24T21:14:41.575Z,5.61
2022-12-24T21:17:15.395Z,5.57
2022-12-24T21:19:45.810Z,5.59
2022-12-24T21:22:14.637Z,5.52
2022-12-24T21:24:43.192Z,5.52
2022-12-24T21:27:11.747Z,5.53
2022-12-24T21:29:41.719Z,5.40
2022-12-24T21:32:10.497Z,5.42
2022-12-24T21:34:39.077Z,5.42
2022-12-24T21:37:07.989Z,5.41
2022-12-24T21:39:36.538Z,5.39
2022-12-24T21:42:05.335Z,5.52
2022-12-24T21:44:36.246Z,5.46
2022-12-24T21:47:08.420Z,5.45
2022-12-24T21:49:54.272Z,5.39
2022-12-24T21:52:24.443Z,5.35
2022-12-24T21:54:51.738Z,5.52
2022-12-24T21:57:37.690Z,5.43
2022-12-24T22:00:27.142Z,5.56
2022-12-24T22:02:59.615Z,5.58
2022-12-24T22:05:28.784Z,5.49
2022-12-24T22:08:14.773Z,5.61
2022-12-24T22:10:57.095Z,5.69
2022-12-24T22:13:26.396Z,5.71
2022-12-24T22:15:55.603Z,5.72
2022-12-24T22:18:27.639Z,5.75
2022-12-24T22:20:57.132Z,5.76
2022-12-24T22:23:25.627Z,5.71
2022-12-24T22:25:54.204Z,5.68
2022-12-24T22:28:23.543Z,5.71
2022-12-24T22:30:52.462Z,5.75
2022-12-24T22:33:21.426Z,5.80
2022-12-24T22:35:51.765Z,5.76
2022-12-24T22:38:21.124Z,5.70
2022-12-24T22:40:49.695Z,5.84
2022-12-24T22:43:18.995Z,5.75
2022-12-24T22:45:47.701Z,5.86
2022-12-24T22:48:16.924Z,5.82
2022-12-24T22:50:45.585Z,5.91
2022-12-24T22:53:16.631Z,5.85
2022-12-24T22:55:45.444Z,5.89
2022-12-24T22:58:15.011Z,5.87
2022-12-24T23:00:46.300Z,5.85
2022-12-24T23:03:15.370Z,5.95
2022-12-24T23:05:44.182Z,5.95
2022-12-24T23:08:14.226Z,5.90
2022-12-24T23:10:44.665Z,6.03
2022-12-24T23:13:31.891Z,5.99
2022-12-24T23:16:03.060Z,5.99
2022-12-24T23:18:31.720Z,6.02
2022-12-24T23:21:00.612Z,6.13
2022-12-24T23:23:34.944Z,6.18
2022-12-24T23:26:08.110Z,6.01
2022-12-24T23:28:37.233Z,6.05
2022-12-24T23:31:07.513Z,6.02
2022-12-24T23:33:36.741Z,5.99
2022-12-24T23:36:06.509Z,6.03
2022-12-24T23:38:35.821Z,6.00
2022-12-24T23:41:08.372Z,5.95
2022-12-24T23:43:37.841Z,6.00
2022-12-24T23:46:06.537Z,6.00
2022-12-24T23:48:35.071Z,5.87
2022-12-24T23:51:08.867Z,5.89
2022-12-24T23:53:37.673Z,5.90
2022-12-24T23:56:10.954Z,5.80
2022-12-24T23:58:40.538Z,5.72
